sensor_id;sensor_type;location;lat;lon;timestamp;pressure;altitude;pressure_sealevel;temperature;humidity
75006;BME280;63553;51.814;4.600;2022-10-16T00:01:42;101070.22;;;13.40;74.66
75006;BME280;63553;51.814;4.600;2022-10-16T00:04:08;101061.78;;;13.48;74.75
75006;BME280;63553;51.814;4.600;2022-10-16T00:06:33;101067.97;;;13.62;74.91
75006;BME280;63553;51.814;4.600;2022-10-16T00:08:59;101067.31;;;13.65;74.10
75006;BME280;63553;51.814;4.600;2022-10-16T00:11:31;101070.53;;;13.47;74.85
75006;BME280;63553;51.814;4.600;2022-10-16T00:14:01;101065.56;;;13.52;75.21
75006;BME280;63553;51.814;4.600;2022-10-16T00:16:27;101059.59;;;13.33;76.07
75006;BME280;63553;51.814;4.600;2022-10-16T00:18:53;101060.84;;;13.44;75.90
75006;BME280;63553;51.814;4.600;2022-10-16T00:21:21;101070.22;;;13.40;75.79
75006;BME280;63553;51.814;4.600;2022-10-16T00:23:51;101076.41;;;13.54;75.68
75006;BME280;63553;51.814;4.600;2022-10-16T00:26:17;101077.41;;;13.49;75.85
75006;BME280;63553;51.814;4.600;2022-10-16T00:28:45;101076.09;;;13.47;76.40
75006;BME280;63553;51.814;4.600;2022-10-16T00:31:11;101071.53;;;13.42;76.60
75006;BME280;63553;51.814;4.600;2022-10-16T00:33:38;101070.44;;;13.26;77.06
75006;BME280;63553;51.814;4.600;2022-10-16T00:36:06;101072.88;;;13.36;77.08
75006;BME280;63553;51.814;4.600;2022-10-16T00:38:32;101084.06;;;13.36;76.96
75006;BME280;63553;51.814;4.600;2022-10-16T00:40:58;101096.22;;;13.31;77.62
75006;BME280;63553;51.814;4.600;2022-10-16T00:43:42;101095.25;;;13.19;78.22
75006;BME280;63553;51.814;4.600;2022-10-16T00:46:20;101099.34;;;13.21;78.20
75006;BME280;63553;51.814;4.600;2022-10-16T00:48:52;101088.97;;;13.30;78.16
75006;BME280;63553;51.814;4.600;2022-10-16T00:51:23;101095.91;;;13.24;78.25
75006;BME280;63553;51.814;4.600;2022-10-16T00:53:50;101091.78;;;13.30;78.47
75006;BME280;63553;51.814;4.600;2022-10-16T00:56:16;101086.84;;;13.95;75.93
75006;BME280;63553;51.814;4.600;2022-10-16T00:58:41;101076.69;;;13.61;78.11
75006;BME280;63553;51.814;4.600;2022-10-16T01:01:07;101056.97;;;13.66;78.39
75006;BME280;63553;51.814;4.600;2022-10-16T01:03:34;101061.72;;;13.36;80.73
75006;BME280;63553;51.814;4.600;2022-10-16T01:09:02;101053.34;;;13.36;80.47
75006;BME280;63553;51.814;4.600;2022-10-16T01:14:17;101052.25;;;13.20;81.13
75006;BME280;63553;51.814;4.600;2022-10-16T01:16:50;101049.88;;;13.30;81.06
75006;BME280;63553;51.814;4.600;2022-10-16T01:22:44;101056.56;;;13.09;81.46
75006;BME280;63553;51.814;4.600;2022-10-16T01:25:20;101063.88;;;13.22;81.40
75006;BME280;63553;51.814;4.600;2022-10-16T01:27:49;101064.41;;;13.07;81.59
75006;BME280;63553;51.814;4.600;2022-10-16T01:30:21;101057.38;;;13.09;81.11
75006;BME280;63553;51.814;4.600;2022-10-16T01:32:55;101061.50;;;12.86;82.19
75006;BME280;63553;51.814;4.600;2022-10-16T01:35:26;101065.91;;;12.96;82.17
75006;BME280;63553;51.814;4.600;2022-10-16T01:40:41;101069.22;;;12.89;82.06
75006;BME280;63553;51.814;4.600;2022-10-16T01:43:13;101069.75;;;12.82;82.04
75006;BME280;63553;51.814;4.600;2022-10-16T01:45:41;101074.28;;;12.96;81.82
75006;BME280;63553;51.814;4.600;2022-10-16T01:48:07;101062.47;;;12.99;81.36
75006;BME280;63553;51.814;4.600;2022-10-16T01:50:37;101065.72;;;13.01;81.33
75006;BME280;63553;51.814;4.600;2022-10-16T01:53:05;101071.22;;;12.89;82.04
75006;BME280;63553;51.814;4.600;2022-10-16T01:55:37;101068.25;;;12.85;81.82
75006;BME280;63553;51.814;4.600;2022-10-16T01:58:05;101074.28;;;12.96;81.57
75006;BME280;63553;51.814;4.600;2022-10-16T02:00:32;101058.03;;;12.89;81.87
75006;BME280;63553;51.814;4.600;2022-10-16T02:03:01;101066.94;;;12.74;82.55
75006;BME280;63553;51.814;4.600;2022-10-16T02:05:38;101075.97;;;12.88;82.31
75006;BME280;63553;51.814;4.600;2022-10-16T02:08:05;101072.13;;;13.01;81.22
75006;BME280;63553;51.814;4.600;2022-10-16T02:10:31;101081.53;;;12.88;82.39
75006;BME280;63553;51.814;4.600;2022-10-16T02:13:09;101088.56;;;13.11;81.11
75006;BME280;63553;51.814;4.600;2022-10-16T02:15:35;101081.84;;;12.95;81.79
75006;BME280;63553;51.814;4.600;2022-10-16T02:18:02;101075.28;;;13.00;82.06
75006;BME280;63553;51.814;4.600;2022-10-16T02:20:32;101081.84;;;12.95;82.39
75006;BME280;63553;51.814;4.600;2022-10-16T02:23:00;101076.13;;;12.92;82.58
75006;BME280;63553;51.814;4.600;2022-10-16T02:25:37;101084.31;;;12.97;82.56
75006;BME280;63553;51.814;4.600;2022-10-16T02:28:13;101082.38;;;12.89;82.72
75006;BME280;63553;51.814;4.600;2022-10-16T02:30:45;101092.19;;;12.86;82.75
75006;BME280;63553;51.814;4.600;2022-10-16T02:33:14;101087.91;;;13.06;82.33
75006;BME280;63553;51.814;4.600;2022-10-16T02:35:41;101084.13;;;13.02;82.51
75006;BME280;63553;51.814;4.600;2022-10-16T02:38:08;101087.09;;;12.97;82.61
75006;BME280;63553;51.814;4.600;2022-10-16T02:40:34;101093.00;;;12.95;82.31
75006;BME280;63553;51.814;4.600;2022-10-16T02:43:03;101094.16;;;13.03;82.30
75006;BME280;63553;51.814;4.600;2022-10-16T02:45:29;101091.69;;;13.10;81.95
75006;BME280;63553;51.814;4.600;2022-10-16T02:47:54;101083.47;;;13.13;82.01
75006;BME280;63553;51.814;4.600;2022-10-16T02:50:20;101086.59;;;13.03;82.03
75006;BME280;63553;51.814;4.600;2022-10-16T02:52:45;101082.66;;;12.96;82.50
75006;BME280;63553;51.814;4.600;2022-10-16T02:55:10;101073.63;;;12.99;82.71
75006;BME280;63553;51.814;4.600;2022-10-16T02:57:36;101071.50;;;12.96;82.62
75006;BME280;63553;51.814;4.600;2022-10-16T03:00:04;101074.28;;;12.96;82.41
75006;BME280;63553;51.814;4.600;2022-10-16T03:02:29;101075.91;;;13.05;81.72
75006;BME280;63553;51.814;4.600;2022-10-16T03:04:54;101073.81;;;12.94;82.44
75006;BME280;63553;51.814;4.600;2022-10-16T03:07:20;101076.41;;;12.99;82.61
75006;BME280;63553;51.814;4.600;2022-10-16T03:09:45;101076.47;;;12.81;83.02
75006;BME280;63553;51.814;4.600;2022-10-16T03:12:10;101077.09;;;12.96;82.85
75006;BME280;63553;51.814;4.600;2022-10-16T03:14:37;101087.78;;;12.85;82.97
75006;BME280;63553;51.814;4.600;2022-10-16T03:17:02;101091.56;;;12.80;83.10
75006;BME280;63553;51.814;4.600;2022-10-16T03:19:27;101098.13;;;12.85;83.08
75006;BME280;63553;51.814;4.600;2022-10-16T03:21:53;101104.56;;;12.76;83.33
75006;BME280;63553;51.814;4.600;2022-10-16T03:24:18;101117.69;;;12.76;83.45
75006;BME280;63553;51.814;4.600;2022-10-16T03:26:43;101109.78;;;12.78;83.81
75006;BME280;63553;51.814;4.600;2022-10-16T03:29:09;101117.03;;;12.70;83.97
75006;BME280;63553;51.814;4.600;2022-10-16T03:31:34;101120.44;;;12.85;83.68
75006;BME280;63553;51.814;4.600;2022-10-16T03:33:59;101121.13;;;12.73;83.58
75006;BME280;63553;51.814;4.600;2022-10-16T03:36:24;101113.56;;;12.82;83.58
75006;BME280;63553;51.814;4.600;2022-10-16T03:38:50;101121.13;;;12.81;83.68
75006;BME280;63553;51.814;4.600;2022-10-16T03:41:15;101112.09;;;12.85;83.82
75006;BME280;63553;51.814;4.600;2022-10-16T03:43:41;101123.09;;;12.64;84.24
75006;BME280;63553;51.814;4.600;2022-10-16T03:46:06;101122.44;;;12.67;84.43
75006;BME280;63553;51.814;4.600;2022-10-16T03:48:31;101119.97;;;12.82;83.58
75006;BME280;63553;51.814;4.600;2022-10-16T03:50:57;101130.00;;;12.66;84.43
75006;BME280;63553;51.814;4.600;2022-10-16T03:53:23;101130.00;;;12.66;84.64
75006;BME280;63553;51.814;4.600;2022-10-16T03:55:48;101140.31;;;12.66;84.06
75006;BME280;63553;51.814;4.600;2022-10-16T03:58:14;101148.50;;;12.71;83.67
75006;BME280;63553;51.814;4.600;2022-10-16T04:00:41;101148.88;;;12.61;84.35
75006;BME280;63553;51.814;4.600;2022-10-16T04:03:06;101134.56;;;12.54;84.94
75006;BME280;63553;51.814;4.600;2022-10-16T04:05:31;101138.03;;;12.42;84.93
75006;BME280;63553;51.814;4.600;2022-10-16T04:07:57;101142.47;;;12.60;84.22
75006;BME280;63553;51.814;4.600;2022-10-16T04:10:22;101143.94;;;12.49;84.81
75006;BME280;63553;51.814;4.600;2022-10-16T04:12:47;101137.53;;;12.57;84.64
75006;BME280;63553;51.814;4.600;2022-10-16T04:15:13;101144.13;;;12.53;84.27
75006;BME280;63553;51.814;4.600;2022-10-16T04:17:38;101150.50;;;12.45;85.05
75006;BME280;63553;51.814;4.600;2022-10-16T04:20:04;101143.28;;;12.44;84.77
75006;BME280;63553;51.814;4.600;2022-10-16T04:22:29;101152.44;;;12.27;84.87
75006;BME280;63553;51.814;4.600;2022-10-16T04:24:55;101148.53;;;12.37;84.95
75006;BME280;63553;51.814;4.600;2022-10-16T04:27:20;101159.84;;;12.32;85.45
75006;BME280;63553;51.814;4.600;2022-10-16T04:29:45;101154.09;;;12.37;85.32
75006;BME280;63553;51.814;4.600;2022-10-16T04:32:11;101168.97;;;12.15;85.77
75006;BME280;63553;51.814;4.600;2022-10-16T04:34:36;101165.22;;;12.19;85.63
75006;BME280;63553;51.814;4.600;2022-10-16T04:37:03;101181.59;;;12.04;85.87
75006;BME280;63553;51.814;4.600;2022-10-16T04:39:28;101183.56;;;12.12;86.42
75006;BME280;63553;51.814;4.600;2022-10-16T04:41:53;101191.06;;;12.03;86.31
75006;BME280;63553;51.814;4.600;2022-10-16T04:44:19;101197.19;;;12.13;86.10
75006;BME280;63553;51.814;4.600;2022-10-16T04:46:44;101194.72;;;12.12;86.19
75006;BME280;63553;51.814;4.600;2022-10-16T04:49:09;101198.66;;;12.11;86.08
75006;BME280;63553;51.814;4.600;2022-10-16T04:51:34;101206.19;;;12.02;86.51
75006;BME280;63553;51.814;4.600;2022-10-16T04:54:00;101200.81;;;12.22;85.93
75006;BME280;63553;51.814;4.600;2022-10-16T04:56:25;101209.81;;;12.11;86.86
75006;BME280;63553;51.814;4.600;2022-10-16T04:58:51;101213.44;;;12.20;86.45
75006;BME280;63553;51.814;4.600;2022-10-16T05:01:16;101213.00;;;12.35;85.48
75006;BME280;63553;51.814;4.600;2022-10-16T05:03:42;101214.41;;;12.24;86.32
75006;BME280;63553;51.814;4.600;2022-10-16T05:06:07;101223.31;;;12.35;85.33
75006;BME280;63553;51.814;4.600;2022-10-16T05:08:33;101225.78;;;12.53;85.44
75006;BME280;63553;51.814;4.600;2022-10-16T05:10:58;101226.50;;;12.67;84.57
75006;BME280;63553;51.814;4.600;2022-10-16T05:13:24;101229.94;;;12.64;84.57
75006;BME280;63553;51.814;4.600;2022-10-16T05:15:49;101225.84;;;12.62;84.66
75006;BME280;63553;51.814;4.600;2022-10-16T05:18:15;101220.56;;;12.69;84.18
75006;BME280;63553;51.814;4.600;2022-10-16T05:20:41;101231.56;;;12.74;83.63
75006;BME280;63553;51.814;4.600;2022-10-16T05:23:07;101241.94;;;12.73;84.17
75006;BME280;63553;51.814;4.600;2022-10-16T05:25:32;101242.22;;;12.72;84.54
75006;BME280;63553;51.814;4.600;2022-10-16T05:27:57;101238.31;;;12.64;84.55
75006;BME280;63553;51.814;4.600;2022-10-16T05:30:23;101243.88;;;12.64;84.50
75006;BME280;63553;51.814;4.600;2022-10-16T05:32:49;101247.34;;;12.87;83.66
75006;BME280;63553;51.814;4.600;2022-10-16T05:35:16;101245.84;;;12.72;84.21
75006;BME280;63553;51.814;4.600;2022-10-16T05:37:42;101251.59;;;12.76;84.39
75006;BME280;63553;51.814;4.600;2022-10-16T05:40:08;101250.59;;;12.72;84.12
75006;BME280;63553;51.814;4.600;2022-10-16T05:42:33;101260.63;;;12.81;83.48
75006;BME280;63553;51.814;4.600;2022-10-16T05:44:59;101262.94;;;13.05;82.46
75006;BME280;63553;51.814;4.600;2022-10-16T05:47:24;101269.00;;;13.07;82.64
75006;BME280;63553;51.814;4.600;2022-10-16T05:49:49;101284.09;;;12.89;83.15
75006;BME280;63553;51.814;4.600;2022-10-16T05:52:15;101283.78;;;12.99;82.71
75006;BME280;63553;51.814;4.600;2022-10-16T05:54:40;101290.69;;;12.93;83.02
75006;BME280;63553;51.814;4.600;2022-10-16T05:57:05;101288.44;;;13.21;81.74
75006;BME280;63553;51.814;4.600;2022-10-16T05:59:31;101285.47;;;13.26;81.77
75006;BME280;63553;51.814;4.600;2022-10-16T06:01:57;101304.19;;;13.17;81.93
75006;BME280;63553;51.814;4.600;2022-10-16T06:04:22;101296.47;;;13.14;82.17
75006;BME280;63553;51.814;4.600;2022-10-16T06:06:47;101303.53;;;13.28;81.53
75006;BME280;63553;51.814;4.600;2022-10-16T06:09:13;101314.22;;;13.35;80.87
75006;BME280;63553;51.814;4.600;2022-10-16T06:11:38;101311.72;;;13.33;81.04
75006;BME280;63553;51.814;4.600;2022-10-16T06:14:03;101315.22;;;13.39;81.18
75006;BME280;63553;51.814;4.600;2022-10-16T06:16:33;101316.00;;;13.22;82.57
75006;BME280;63553;51.814;4.600;2022-10-16T06:18:59;101321.09;;;13.46;81.36
75006;BME280;63553;51.814;4.600;2022-10-16T06:21:26;101331.28;;;13.25;81.56
75006;BME280;63553;51.814;4.600;2022-10-16T06:23:53;101328.50;;;13.42;82.22
75006;BME280;63553;51.814;4.600;2022-10-16T06:26:21;101345.59;;;13.23;83.44
75006;BME280;63553;51.814;4.600;2022-10-16T06:28:48;101349.34;;;13.19;83.41
75006;BME280;63553;51.814;4.600;2022-10-16T06:31:14;101339.19;;;13.14;84.46
75006;BME280;63553;51.814;4.600;2022-10-16T06:33:40;101340.28;;;13.05;85.10
75006;BME280;63553;51.814;4.600;2022-10-16T06:36:15;101343.06;;;12.88;86.14
75006;BME280;63553;51.814;4.600;2022-10-16T06:38:40;101346.34;;;12.98;85.85
75006;BME280;63553;51.814;4.600;2022-10-16T06:41:08;101332.69;;;12.79;86.65
75006;BME280;63553;51.814;4.600;2022-10-16T06:43:34;101335.34;;;12.85;87.04
75006;BME280;63553;51.814;4.600;2022-10-16T06:46:04;101351.59;;;12.91;86.56
75006;BME280;63553;51.814;4.600;2022-10-16T06:48:31;101342.22;;;12.78;87.55
75006;BME280;63553;51.814;4.600;2022-10-16T06:51:00;101353.56;;;12.91;86.65
75006;BME280;63553;51.814;4.600;2022-10-16T06:53:27;101348.44;;;12.84;86.84
75006;BME280;63553;51.814;4.600;2022-10-16T06:55:53;101351.41;;;12.79;86.67
75006;BME280;63553;51.814;4.600;2022-10-16T06:58:19;101356.16;;;12.78;87.31
75006;BME280;63553;51.814;4.600;2022-10-16T07:00:44;101354.50;;;12.77;87.10
75006;BME280;63553;51.814;4.600;2022-10-16T07:03:10;101371.56;;;12.67;87.28
75006;BME280;63553;51.814;4.600;2022-10-16T07:05:39;101371.44;;;12.81;86.67
75006;BME280;63553;51.814;4.600;2022-10-16T07:08:05;101380.09;;;12.71;87.54
75006;BME280;63553;51.814;4.600;2022-10-16T07:10:31;101381.91;;;12.67;87.75
75006;BME280;63553;51.814;4.600;2022-10-16T07:12:57;101388.94;;;12.64;87.67
75006;BME280;63553;51.814;4.600;2022-10-16T07:15:22;101391.75;;;12.64;87.47
75006;BME280;63553;51.814;4.600;2022-10-16T07:17:47;101391.13;;;12.76;87.58
75006;BME280;63553;51.814;4.600;2022-10-16T07:20:13;101386.22;;;12.90;86.47
75006;BME280;63553;51.814;4.600;2022-10-16T07:22:38;101395.59;;;12.86;86.47
75006;BME280;63553;51.814;4.600;2022-10-16T07:25:04;101400.78;;;13.18;84.21
75006;BME280;63553;51.814;4.600;2022-10-16T07:27:29;101411.47;;;13.33;84.35
75006;BME280;63553;51.814;4.600;2022-10-16T07:29:54;101419.88;;;13.50;83.15
75006;BME280;63553;51.814;4.600;2022-10-16T07:32:20;101421.66;;;13.46;83.58
75006;BME280;63553;51.814;4.600;2022-10-16T07:34:45;101429.91;;;13.68;82.59
75006;BME280;63553;51.814;4.600;2022-10-16T07:37:11;101433.34;;;13.65;82.82
75006;BME280;63553;51.814;4.600;2022-10-16T07:39:36;101437.94;;;14.04;81.94
75006;BME280;63553;51.814;4.600;2022-10-16T07:42:01;101437.41;;;14.28;79.98
75006;BME280;63553;51.814;4.600;2022-10-16T07:44:27;101440.50;;;14.43;78.83
75006;BME280;63553;51.814;4.600;2022-10-16T07:46:52;101442.66;;;14.29;79.07
75006;BME280;63553;51.814;4.600;2022-10-16T07:49:17;101437.56;;;15.16;76.67
75006;BME280;63553;51.814;4.600;2022-10-16T07:51:43;101440.91;;;15.59;74.20
75006;BME280;63553;51.814;4.600;2022-10-16T07:54:09;101449.19;;;15.76;73.95
75006;BME280;63553;51.814;4.600;2022-10-16T07:56:34;101459.88;;;16.16;71.00
75006;BME280;63553;51.814;4.600;2022-10-16T07:59:00;101466.94;;;16.54;70.47
75006;BME280;63553;51.814;4.600;2022-10-16T08:01:25;101467.47;;;16.69;70.31
75006;BME280;63553;51.814;4.600;2022-10-16T08:03:51;101469.72;;;17.23;68.30
75006;BME280;63553;51.814;4.600;2022-10-16T08:06:18;101464.47;;;17.86;66.07
75006;BME280;63553;51.814;4.600;2022-10-16T08:08:43;101473.81;;;18.58;63.15
75006;BME280;63553;51.814;4.600;2022-10-16T08:11:09;101478.47;;;19.44;60.80
75006;BME280;63553;51.814;4.600;2022-10-16T08:13:35;101472.41;;;19.61;59.73
75006;BME280;63553;51.814;4.600;2022-10-16T08:16:00;101484.78;;;20.11;58.00
75006;BME280;63553;51.814;4.600;2022-10-16T08:18:26;101491.19;;;20.65;56.56
75006;BME280;63553;51.814;4.600;2022-10-16T08:20:58;101490.31;;;20.42;57.11
75006;BME280;63553;51.814;4.600;2022-10-16T08:23:25;101485.69;;;20.53;56.65
75006;BME280;63553;51.814;4.600;2022-10-16T08:25:52;101491.78;;;21.20;54.53
75006;BME280;63553;51.814;4.600;2022-10-16T08:28:18;101492.50;;;21.66;53.34
75006;BME280;63553;51.814;4.600;2022-10-16T08:30:44;101496.63;;;21.98;52.75
75006;BME280;63553;51.814;4.600;2022-10-16T08:33:09;101496.31;;;22.03;51.82
75006;BME280;63553;51.814;4.600;2022-10-16T08:35:35;101508.97;;;22.12;51.57
75006;BME280;63553;51.814;4.600;2022-10-16T08:38:03;101504.44;;;22.38;51.14
75006;BME280;63553;51.814;4.600;2022-10-16T08:40:30;101509.00;;;22.79;50.15
75006;BME280;63553;51.814;4.600;2022-10-16T08:45:58;101514.53;;;22.35;50.49
75006;BME280;63553;51.814;4.600;2022-10-16T08:48:46;101525.44;;;23.44;48.28
75006;BME280;63553;51.814;4.600;2022-10-16T08:51:19;101526.63;;;23.39;47.71
75006;BME280;63553;51.814;4.600;2022-10-16T08:53:56;101526.31;;;23.51;47.51
75006;BME280;63553;51.814;4.600;2022-10-16T08:56:23;101526.09;;;23.77;47.20
75006;BME280;63553;51.814;4.600;2022-10-16T08:58:49;101538.19;;;23.67;47.25
75006;BME280;63553;51.814;4.600;2022-10-16T09:01:17;101529.63;;;23.64;47.33
75006;BME280;63553;51.814;4.600;2022-10-16T09:06:47;101531.53;;;24.04;45.86
75006;BME280;63553;51.814;4.600;2022-10-16T09:09:34;101532.13;;;24.34;45.14
75006;BME280;63553;51.814;4.600;2022-10-16T09:14:43;101544.28;;;24.31;44.80
75006;BME280;63553;51.814;4.600;2022-10-16T09:22:38;101539.94;;;24.58;44.33
75006;BME280;63553;51.814;4.600;2022-10-16T09:25:15;101550.44;;;24.51;44.14
75006;BME280;63553;51.814;4.600;2022-10-16T09:27:44;101549.66;;;24.57;44.19
75006;BME280;63553;51.814;4.600;2022-10-16T09:32:38;101548.84;;;24.53;44.60
75006;BME280;63553;51.814;4.600;2022-10-16T09:35:13;101553.00;;;24.73;43.59
75006;BME280;63553;51.814;4.600;2022-10-16T09:37:40;101560.69;;;24.73;43.89
75006;BME280;63553;51.814;4.600;2022-10-16T09:40:13;101562.91;;;23.67;46.71
75006;BME280;63553;51.814;4.600;2022-10-16T09:42:38;101569.97;;;23.87;45.53
75006;BME280;63553;51.814;4.600;2022-10-16T09:45:04;101568.13;;;23.58;46.37
75006;BME280;63553;51.814;4.600;2022-10-16T09:47:31;101569.44;;;23.71;45.99
75006;BME280;63553;51.814;4.600;2022-10-16T09:50:03;101578.38;;;23.73;46.74
75006;BME280;63553;51.814;4.600;2022-10-16T09:52:31;101574.41;;;23.85;45.87
75006;BME280;63553;51.814;4.600;2022-10-16T09:54:58;101571.66;;;23.95;45.91
75006;BME280;63553;51.814;4.600;2022-10-16T09:57:24;101569.31;;;24.08;45.95
75006;BME280;63553;51.814;4.600;2022-10-16T09:59:52;101569.06;;;24.30;45.11
75006;BME280;63553;51.814;4.600;2022-10-16T10:02:38;101566.56;;;24.22;45.09
75006;BME280;63553;51.814;4.600;2022-10-16T10:05:18;101563.06;;;23.88;45.99
75006;BME280;63553;51.814;4.600;2022-10-16T10:07:44;101578.63;;;24.05;45.25
75006;BME280;63553;51.814;4.600;2022-10-16T10:10:22;101579.28;;;23.88;45.94
75006;BME280;63553;51.814;4.600;2022-10-16T10:12:48;101583.28;;;23.72;46.28
75006;BME280;63553;51.814;4.600;2022-10-16T10:15:14;101591.31;;;23.63;46.96
75006;BME280;63553;51.814;4.600;2022-10-16T10:17:53;101592.88;;;23.61;46.88
75006;BME280;63553;51.814;4.600;2022-10-16T10:20:35;101598.44;;;23.47;47.04
75006;BME280;63553;51.814;4.600;2022-10-16T10:23:24;101590.66;;;23.40;47.00
75006;BME280;63553;51.814;4.600;2022-10-16T10:26:00;101598.97;;;23.19;47.85
75006;BME280;63553;51.814;4.600;2022-10-16T10:31:17;101599.34;;;22.51;49.39
75006;BME280;63553;51.814;4.600;2022-10-16T10:33:50;101618.53;;;22.05;50.21
75006;BME280;63553;51.814;4.600;2022-10-16T10:39:41;101621.94;;;21.69;51.55
75006;BME280;63553;51.814;4.600;2022-10-16T10:44:49;101611.16;;;21.51;51.73
75006;BME280;63553;51.814;4.600;2022-10-16T10:50:23;101626.00;;;21.22;52.62
75006;BME280;63553;51.814;4.600;2022-10-16T10:52:57;101626.88;;;21.07;52.95
75006;BME280;63553;51.814;4.600;2022-10-16T10:55:29;101631.06;;;20.75;53.19
75006;BME280;63553;51.814;4.600;2022-10-16T11:00:47;101634.34;;;20.77;53.90
75006;BME280;63553;51.814;4.600;2022-10-16T11:03:31;101626.66;;;20.58;54.35
75006;BME280;63553;51.814;4.600;2022-10-16T11:06:07;101626.91;;;20.69;54.30
75006;BME280;63553;51.814;4.600;2022-10-16T11:08:35;101641.56;;;20.74;53.84
75006;BME280;63553;51.814;4.600;2022-10-16T11:11:14;101641.00;;;20.49;54.85
75006;BME280;63553;51.814;4.600;2022-10-16T11:16:27;101641.47;;;20.52;54.84
75006;BME280;63553;51.814;4.600;2022-10-16T11:19:02;101648.31;;;20.50;54.73
75006;BME280;63553;51.814;4.600;2022-10-16T11:21:38;101648.66;;;20.49;55.14
75006;BME280;63553;51.814;4.600;2022-10-16T11:24:16;101649.25;;;20.39;55.78
75006;BME280;63553;51.814;4.600;2022-10-16T11:26:46;101658.91;;;20.38;55.35
75006;BME280;63553;51.814;4.600;2022-10-16T11:29:26;101653.91;;;20.31;55.58
75006;BME280;63553;51.814;4.600;2022-10-16T11:31:58;101656.28;;;20.29;55.35
75006;BME280;63553;51.814;4.600;2022-10-16T11:34:49;101660.69;;;20.11;55.94
75006;BME280;63553;51.814;4.600;2022-10-16T11:37:23;101660.53;;;20.04;55.88
75006;BME280;63553;51.814;4.600;2022-10-16T11:39:52;101660.44;;;20.01;55.95
75006;BME280;63553;51.814;4.600;2022-10-16T11:42:27;101661.78;;;20.07;55.73
75006;BME280;63553;51.814;4.600;2022-10-16T11:55:53;101676.44;;;19.81;56.78
75006;BME280;63553;51.814;4.600;2022-10-16T11:58:28;101681.38;;;19.68;56.76
75006;BME280;63553;51.814;4.600;2022-10-16T12:03:55;101678.75;;;19.60;57.03
75006;BME280;63553;51.814;4.600;2022-10-16T12:06:46;101680.66;;;19.71;56.69
75006;BME280;63553;51.814;4.600;2022-10-16T12:09:24;101674.34;;;19.78;56.00
75006;BME280;63553;51.814;4.600;2022-10-16T12:11:51;101685.66;;;19.78;56.12
75006;BME280;63553;51.814;4.600;2022-10-16T12:16:54;101684.53;;;19.51;56.30
75006;BME280;63553;51.814;4.600;2022-10-16T12:19:21;101683.91;;;19.14;56.51
75006;BME280;63553;51.814;4.600;2022-10-16T12:21:57;101683.53;;;19.44;56.03
75006;BME280;63553;51.814;4.600;2022-10-16T12:26:59;101690.19;;;19.51;55.59
75006;BME280;63553;51.814;4.600;2022-10-16T12:32:00;101695.69;;;19.60;56.23
75006;BME280;63553;51.814;4.600;2022-10-16T12:34:42;101681.88;;;19.42;55.64
75006;BME280;63553;51.814;4.600;2022-10-16T12:37:11;101688.19;;;19.52;56.08
75006;BME280;63553;51.814;4.600;2022-10-16T12:39:38;101687.63;;;19.46;55.85
75006;BME280;63553;51.814;4.600;2022-10-16T12:44:50;101689.00;;;19.52;55.75
75006;BME280;63553;51.814;4.600;2022-10-16T12:47:20;101684.50;;;19.35;55.66
75006;BME280;63553;51.814;4.600;2022-10-16T12:49:53;101695.28;;;19.46;56.04
75006;BME280;63553;51.814;4.600;2022-10-16T12:52:39;101688.19;;;19.52;55.81
75006;BME280;63553;51.814;4.600;2022-10-16T12:55:11;101695.75;;;19.48;54.95
75006;BME280;63553;51.814;4.600;2022-10-16T13:17:09;101706.09;;;19.44;56.88
75006;BME280;63553;51.814;4.600;2022-10-16T13:20:06;101704.47;;;19.42;56.91
75006;BME280;63553;51.814;4.600;2022-10-16T13:23:13;101708.81;;;19.12;56.53
75006;BME280;63553;51.814;4.600;2022-10-16T13:28:10;101703.63;;;19.42;56.46
75006;BME280;63553;51.814;4.600;2022-10-16T13:30:42;101716.47;;;19.39;57.19
75006;BME280;63553;51.814;4.600;2022-10-16T13:33:24;101711.06;;;19.34;56.63
75006;BME280;63553;51.814;4.600;2022-10-16T13:35:56;101711.03;;;19.47;56.67
75006;BME280;63553;51.814;4.600;2022-10-16T13:38:27;101703.72;;;19.46;56.79
75006;BME280;63553;51.814;4.600;2022-10-16T13:41:00;101708.94;;;19.44;57.19
75006;BME280;63553;51.814;4.600;2022-10-16T13:43:39;101714.78;;;19.51;56.79
75006;BME280;63553;51.814;4.600;2022-10-16T13:46:12;101715.50;;;19.48;56.81
75006;BME280;63553;51.814;4.600;2022-10-16T13:48:37;101710.09;;;19.42;57.10
75006;BME280;63553;51.814;4.600;2022-10-16T13:51:17;101708.81;;;19.40;57.37
75006;BME280;63553;51.814;4.600;2022-10-16T13:53:44;101706.25;;;19.35;57.04
75006;BME280;63553;51.814;4.600;2022-10-16T13:56:20;101702.59;;;19.34;56.93
75006;BME280;63553;51.814;4.600;2022-10-16T13:58:46;101706.81;;;19.40;56.83
75006;BME280;63553;51.814;4.600;2022-10-16T14:01:25;101704.84;;;19.41;56.57
75006;BME280;63553;51.814;4.600;2022-10-16T14:03:52;101708.94;;;19.44;57.00
75006;BME280;63553;51.814;4.600;2022-10-16T14:06:21;101716.78;;;19.50;56.94
75006;BME280;63553;51.814;4.600;2022-10-16T14:11:29;101708.22;;;19.47;57.04
75006;BME280;63553;51.814;4.600;2022-10-16T14:13:55;101696.50;;;19.32;56.78
75006;BME280;63553;51.814;4.600;2022-10-16T14:16:25;101695.66;;;19.44;57.31
75006;BME280;63553;51.814;4.600;2022-10-16T14:19:02;101692.50;;;19.33;57.12
75006;BME280;63553;51.814;4.600;2022-10-16T14:21:29;101686.41;;;19.31;57.90
75006;BME280;63553;51.814;4.600;2022-10-16T14:23:55;101694.97;;;19.35;57.66
75006;BME280;63553;51.814;4.600;2022-10-16T14:26:26;101692.16;;;19.35;57.44
75006;BME280;63553;51.814;4.600;2022-10-16T14:29:21;101693.13;;;19.27;56.78
75006;BME280;63553;51.814;4.600;2022-10-16T14:32:20;101699.38;;;18.93;57.55
75006;BME280;63553;51.814;4.600;2022-10-16T14:34:53;101696.72;;;18.84;58.61